sensor_id;sensor_type;location;lat;lon;timestamp;P1;durP1;ratioP1;P2;durP2;ratioP2
61785;SDS011;47692;53.714;11.372;2023-07-13T00:00:23;4.47;;;1.83;;
61785;SDS011;47692;53.714;11.372;2023-07-13T00:02:48;5.30;;;1.80;;
61785;SDS011;47692;53.714;11.372;2023-07-13T00:05:14;5.03;;;1.40;;
61785;SDS011;47692;53.714;11.372;2023-07-13T00:07:39;4.78;;;1.60;;
61785;SDS011;47692;53.714;11.372;2023-07-13T00:10:05;5.18;;;1.60;;
61785;SDS011;47692;53.714;11.372;2023-07-13T00:12:33;6.78;;;1.70;;
61785;SDS011;47692;53.714;11.372;2023-07-13T00:15:01;4.45;;;1.30;;
61785;SDS011;47692;53.714;11.372;2023-07-13T00:17:30;4.78;;;1.33;;
61785;SDS011;47692;53.714;11.372;2023-07-13T00:19:56;3.35;;;1.50;;
61785;SDS011;47692;53.714;11.372;2023-07-13T00:22:22;4.38;;;1.65;;
61785;SDS011;47692;53.714;11.372;2023-07-13T00:24:50;4.72;;;1.40;;
61785;SDS011;47692;53.714;11.372;2023-07-13T00:27:17;4.38;;;1.50;;
61785;SDS011;47692;53.714;11.372;2023-07-13T00:29:42;3.72;;;1.42;;
61785;SDS011;47692;53.714;11.372;2023-07-13T00:32:08;3.47;;;1.30;;
61785;SDS011;47692;53.714;11.372;2023-07-13T00:34:34;4.10;;;1.55;;
61785;SDS011;47692;53.714;11.372;2023-07-13T00:37:00;3.28;;;1.55;;
61785;SDS011;47692;53.714;11.372;2023-07-13T00:39:25;2.90;;;1.30;;
61785;SDS011;47692;53.714;11.372;2023-07-13T00:41:51;5.82;;;1.90;;
61785;SDS011;47692;53.714;11.372;2023-07-13T00:44:17;3.30;;;1.50;;
61785;SDS011;47692;53.714;11.372;2023-07-13T00:46:44;2.90;;;2.00;;
61785;SDS011;47692;53.714;11.372;2023-07-13T00:49:10;5.57;;;1.80;;
61785;SDS011;47692;53.714;11.372;2023-07-13T00:54:13;3.10;;;1.52;;
61785;SDS011;47692;53.714;11.372;2023-07-13T00:56:43;4.00;;;1.77;;
61785;SDS011;47692;53.714;11.372;2023-07-13T00:59:11;3.22;;;1.85;;
61785;SDS011;47692;53.714;11.372;2023-07-13T01:01:40;3.45;;;1.73;;
61785;SDS011;47692;53.714;11.372;2023-07-13T01:04:06;4.47;;;1.85;;
61785;SDS011;47692;53.714;11.372;2023-07-13T01:06:33;3.45;;;1.67;;
61785;SDS011;47692;53.714;11.372;2023-07-13T01:09:00;3.97;;;1.80;;
61785;SDS011;47692;53.714;11.372;2023-07-13T01:11:26;3.95;;;1.70;;
61785;SDS011;47692;53.714;11.372;2023-07-13T01:13:52;5.53;;;2.33;;
61785;SDS011;47692;53.714;11.372;2023-07-13T01:16:24;4.20;;;1.75;;
61785;SDS011;47692;53.714;11.372;2023-07-13T01:18:51;5.63;;;1.95;;
61785;SDS011;47692;53.714;11.372;2023-07-13T01:21:17;4.97;;;2.05;;
61785;SDS011;47692;53.714;11.372;2023-07-13T01:23:44;5.70;;;1.90;;
61785;SDS011;47692;53.714;11.372;2023-07-13T01:26:09;5.57;;;2.17;;
61785;SDS011;47692;53.714;11.372;2023-07-13T01:28:35;4.28;;;2.20;;
61785;SDS011;47692;53.714;11.372;2023-07-13T01:31:02;3.50;;;1.70;;
61785;SDS011;47692;53.714;11.372;2023-07-13T01:33:28;6.10;;;1.90;;
61785;SDS011;47692;53.714;11.372;2023-07-13T01:35:53;3.20;;;1.90;;
61785;SDS011;47692;53.714;11.372;2023-07-13T01:38:20;6.03;;;2.53;;
61785;SDS011;47692;53.714;11.372;2023-07-13T01:40:47;5.60;;;2.00;;
61785;SDS011;47692;53.714;11.372;2023-07-13T01:43:13;3.55;;;2.00;;
61785;SDS011;47692;53.714;11.372;2023-07-13T01:45:38;3.78;;;2.13;;
61785;SDS011;47692;53.714;11.372;2023-07-13T01:48:04;4.28;;;1.88;;
61785;SDS011;47692;53.714;11.372;2023-07-13T01:50:31;4.13;;;2.15;;
61785;SDS011;47692;53.714;11.372;2023-07-13T01:52:57;3.15;;;1.67;;
61785;SDS011;47692;53.714;11.372;2023-07-13T01:55:22;3.35;;;1.83;;
61785;SDS011;47692;53.714;11.372;2023-07-13T01:57:48;4.63;;;1.88;;
61785;SDS011;47692;53.714;11.372;2023-07-13T02:00:14;5.93;;;1.77;;
61785;SDS011;47692;53.714;11.372;2023-07-13T02:02:39;3.17;;;1.92;;
61785;SDS011;47692;53.714;11.372;2023-07-13T02:05:05;4.05;;;1.90;;
61785;SDS011;47692;53.714;11.372;2023-07-13T02:07:31;5.78;;;2.00;;
61785;SDS011;47692;53.714;11.372;2023-07-13T02:09:57;5.68;;;2.10;;
61785;SDS011;47692;53.714;11.372;2023-07-13T02:12:22;4.78;;;2.22;;
61785;SDS011;47692;53.714;11.372;2023-07-13T02:14:48;4.80;;;2.00;;
61785;SDS011;47692;53.714;11.372;2023-07-13T02:17:13;5.30;;;2.20;;
61785;SDS011;47692;53.714;11.372;2023-07-13T02:19:39;4.32;;;2.10;;
61785;SDS011;47692;53.714;11.372;2023-07-13T02:22:05;4.20;;;1.80;;
61785;SDS011;47692;53.714;11.372;2023-07-13T02:24:30;5.53;;;2.50;;
61785;SDS011;47692;53.714;11.372;2023-07-13T02:26:56;6.78;;;2.75;;
61785;SDS011;47692;53.714;11.372;2023-07-13T02:29:22;7.15;;;2.75;;
61785;SDS011;47692;53.714;11.372;2023-07-13T02:31:47;6.65;;;2.30;;
61785;SDS011;47692;53.714;11.372;2023-07-13T02:34:13;6.32;;;2.42;;
61785;SDS011;47692;53.714;11.372;2023-07-13T02:36:38;6.20;;;2.63;;
61785;SDS011;47692;53.714;11.372;2023-07-13T02:39:04;5.60;;;2.58;;
61785;SDS011;47692;53.714;11.372;2023-07-13T02:41:31;6.03;;;2.92;;
61785;SDS011;47692;53.714;11.372;2023-07-13T02:43:57;5.93;;;3.05;;
61785;SDS011;47692;53.714;11.372;2023-07-13T02:46:36;8.80;;;3.88;;
61785;SDS011;47692;53.714;11.372;2023-07-13T02:49:02;6.75;;;2.92;;
61785;SDS011;47692;53.714;11.372;2023-07-13T02:51:28;4.75;;;2.80;;
61785;SDS011;47692;53.714;11.372;2023-07-13T02:53:54;7.03;;;3.00;;
61785;SDS011;47692;53.714;11.372;2023-07-13T02:56:23;6.63;;;2.70;;
61785;SDS011;47692;53.714;11.372;2023-07-13T02:58:50;5.13;;;2.90;;
61785;SDS011;47692;53.714;11.372;2023-07-13T03:01:15;6.45;;;2.75;;
61785;SDS011;47692;53.714;11.372;2023-07-13T03:03:44;4.60;;;2.60;;
61785;SDS011;47692;53.714;11.372;2023-07-13T03:06:13;5.07;;;2.75;;
61785;SDS011;47692;53.714;11.372;2023-07-13T03:08:39;6.75;;;2.70;;
61785;SDS011;47692;53.714;11.372;2023-07-13T03:11:08;8.65;;;3.20;;
61785;SDS011;47692;53.714;11.372;2023-07-13T03:13:36;6.10;;;2.83;;
61785;SDS011;47692;53.714;11.372;2023-07-13T03:16:03;4.40;;;2.45;;
61785;SDS011;47692;53.714;11.372;2023-07-13T03:18:28;5.25;;;2.70;;
61785;SDS011;47692;53.714;11.372;2023-07-13T03:20:54;6.22;;;2.58;;
61785;SDS011;47692;53.714;11.372;2023-07-13T03:23:19;6.05;;;2.42;;
61785;SDS011;47692;53.714;11.372;2023-07-13T03:25:46;3.67;;;2.50;;
61785;SDS011;47692;53.714;11.372;2023-07-13T03:28:12;6.40;;;2.60;;
61785;SDS011;47692;53.714;11.372;2023-07-13T03:30:38;3.60;;;1.85;;
61785;SDS011;47692;53.714;11.372;2023-07-13T03:33:04;4.97;;;2.40;;
61785;SDS011;47692;53.714;11.372;2023-07-13T03:35:30;4.93;;;2.33;;
61785;SDS011;47692;53.714;11.372;2023-07-13T03:37:57;4.38;;;2.70;;
61785;SDS011;47692;53.714;11.372;2023-07-13T03:40:24;5.43;;;2.25;;
61785;SDS011;47692;53.714;11.372;2023-07-13T03:42:51;3.85;;;2.25;;
61785;SDS011;47692;53.714;11.372;2023-07-13T03:45:16;6.97;;;2.30;;
61785;SDS011;47692;53.714;11.372;2023-07-13T03:47:41;5.45;;;2.17;;
61785;SDS011;47692;53.714;11.372;2023-07-13T03:50:07;4.55;;;1.90;;
61785;SDS011;47692;53.714;11.372;2023-07-13T03:52:32;4.57;;;1.77;;
61785;SDS011;47692;53.714;11.372;2023-07-13T03:54:58;4.57;;;2.28;;
61785;SDS011;47692;53.714;11.372;2023-07-13T03:57:23;5.22;;;2.00;;
61785;SDS011;47692;53.714;11.372;2023-07-13T03:59:48;3.90;;;1.92;;
61785;SDS011;47692;53.714;11.372;2023-07-13T04:02:14;6.95;;;2.05;;
61785;SDS011;47692;53.714;11.372;2023-07-13T04:04:39;7.32;;;2.33;;
61785;SDS011;47692;53.714;11.372;2023-07-13T04:07:05;4.75;;;2.30;;
61785;SDS011;47692;53.714;11.372;2023-07-13T04:09:32;5.05;;;2.22;;
61785;SDS011;47692;53.714;11.372;2023-07-13T04:11:57;4.47;;;2.15;;
61785;SDS011;47692;53.714;11.372;2023-07-13T04:14:22;6.57;;;2.38;;
61785;SDS011;47692;53.714;11.372;2023-07-13T04:16:48;4.40;;;2.55;;
61785;SDS011;47692;53.714;11.372;2023-07-13T04:19:13;4.50;;;2.22;;
61785;SDS011;47692;53.714;11.372;2023-07-13T04:21:39;6.18;;;2.72;;
61785;SDS011;47692;53.714;11.372;2023-07-13T04:24:04;6.78;;;2.80;;
61785;SDS011;47692;53.714;11.372;2023-07-13T04:26:29;6.07;;;2.40;;
61785;SDS011;47692;53.714;11.372;2023-07-13T04:28:55;3.40;;;2.47;;
61785;SDS011;47692;53.714;11.372;2023-07-13T04:31:21;6.95;;;2.95;;
61785;SDS011;47692;53.714;11.372;2023-07-13T04:33:47;5.82;;;2.83;;
61785;SDS011;47692;53.714;11.372;2023-07-13T04:36:13;6.82;;;2.67;;
61785;SDS011;47692;53.714;11.372;2023-07-13T04:38:39;4.80;;;2.70;;
61785;SDS011;47692;53.714;11.372;2023-07-13T04:41:06;9.13;;;3.63;;
61785;SDS011;47692;53.714;11.372;2023-07-13T04:43:33;8.95;;;3.10;;
61785;SDS011;47692;53.714;11.372;2023-07-13T04:46:05;3.63;;;2.60;;
61785;SDS011;47692;53.714;11.372;2023-07-13T04:48:36;5.03;;;2.72;;
61785;SDS011;47692;53.714;11.372;2023-07-13T04:51:02;4.57;;;2.80;;
61785;SDS011;47692;53.714;11.372;2023-07-13T04:53:29;5.93;;;3.55;;
61785;SDS011;47692;53.714;11.372;2023-07-13T04:55:55;7.20;;;3.00;;
61785;SDS011;47692;53.714;11.372;2023-07-13T04:58:21;6.50;;;2.97;;
61785;SDS011;47692;53.714;11.372;2023-07-13T05:00:47;8.43;;;3.42;;
61785;SDS011;47692;53.714;11.372;2023-07-13T05:03:13;6.43;;;2.90;;
61785;SDS011;47692;53.714;11.372;2023-07-13T05:05:38;5.57;;;3.10;;
61785;SDS011;47692;53.714;11.372;2023-07-13T05:08:04;5.78;;;3.00;;
61785;SDS011;47692;53.714;11.372;2023-07-13T05:10:29;5.75;;;3.30;;
61785;SDS011;47692;53.714;11.372;2023-07-13T05:12:54;5.90;;;3.17;;
61785;SDS011;47692;53.714;11.372;2023-07-13T05:15:21;4.78;;;2.92;;
61785;SDS011;47692;53.714;11.372;2023-07-13T05:17:47;5.70;;;3.20;;
61785;SDS011;47692;53.714;11.372;2023-07-13T05:20:13;8.65;;;3.45;;
61785;SDS011;47692;53.714;11.372;2023-07-13T05:22:39;6.03;;;3.17;;
61785;SDS011;47692;53.714;11.372;2023-07-13T05:25:05;7.35;;;3.05;;
61785;SDS011;47692;53.714;11.372;2023-07-13T05:27:31;3.88;;;3.03;;
61785;SDS011;47692;53.714;11.372;2023-07-13T05:29:57;7.50;;;3.03;;
61785;SDS011;47692;53.714;11.372;2023-07-13T05:32:22;5.45;;;2.80;;
61785;SDS011;47692;53.714;11.372;2023-07-13T05:34:48;5.70;;;2.72;;
61785;SDS011;47692;53.714;11.372;2023-07-13T05:37:13;4.05;;;3.13;;
61785;SDS011;47692;53.714;11.372;2023-07-13T05:39:38;6.22;;;3.15;;
61785;SDS011;47692;53.714;11.372;2023-07-13T05:42:04;6.18;;;2.67;;
61785;SDS011;47692;53.714;11.372;2023-07-13T05:44:30;3.25;;;2.20;;
61785;SDS011;47692;53.714;11.372;2023-07-13T05:46:55;6.60;;;2.20;;
61785;SDS011;47692;53.714;11.372;2023-07-13T05:49:21;2.70;;;2.03;;
61785;SDS011;47692;53.714;11.372;2023-07-13T05:51:47;3.70;;;2.30;;
61785;SDS011;47692;53.714;11.372;2023-07-13T05:54:12;4.00;;;2.03;;
61785;SDS011;47692;53.714;11.372;2023-07-13T05:56:38;4.18;;;2.53;;
61785;SDS011;47692;53.714;11.372;2023-07-13T05:59:03;5.35;;;2.20;;
61785;SDS011;47692;53.714;11.372;2023-07-13T06:01:29;5.20;;;2.05;;
61785;SDS011;47692;53.714;11.372;2023-07-13T06:03:55;7.05;;;2.00;;
61785;SDS011;47692;53.714;11.372;2023-07-13T06:06:20;4.70;;;1.88;;
61785;SDS011;47692;53.714;11.372;2023-07-13T06:08:45;4.25;;;2.00;;
61785;SDS011;47692;53.714;11.372;2023-07-13T06:13:46;3.92;;;1.83;;
61785;SDS011;47692;53.714;11.372;2023-07-13T06:16:12;4.13;;;2.10;;
61785;SDS011;47692;53.714;11.372;2023-07-13T06:18:38;5.03;;;2.10;;
61785;SDS011;47692;53.714;11.372;2023-07-13T06:21:05;5.25;;;2.08;;
61785;SDS011;47692;53.714;11.372;2023-07-13T06:23:31;5.95;;;2.22;;
61785;SDS011;47692;53.714;11.372;2023-07-13T06:25:57;6.57;;;1.70;;
61785;SDS011;47692;53.714;11.372;2023-07-13T06:28:22;3.00;;;1.88;;
61785;SDS011;47692;53.714;11.372;2023-07-13T06:30:47;3.58;;;1.85;;
61785;SDS011;47692;53.714;11.372;2023-07-13T06:33:13;3.78;;;1.58;;
61785;SDS011;47692;53.714;11.372;2023-07-13T06:35:38;3.00;;;1.77;;
61785;SDS011;47692;53.714;11.372;2023-07-13T06:38:03;2.75;;;1.63;;
61785;SDS011;47692;53.714;11.372;2023-07-13T06:40:29;6.30;;;1.95;;
61785;SDS011;47692;53.714;11.372;2023-07-13T06:42:55;2.50;;;1.63;;
61785;SDS011;47692;53.714;11.372;2023-07-13T06:45:21;3.67;;;1.65;;
61785;SDS011;47692;53.714;11.372;2023-07-13T06:47:46;5.25;;;1.77;;
61785;SDS011;47692;53.714;11.372;2023-07-13T06:50:11;3.63;;;1.65;;
61785;SDS011;47692;53.714;11.372;2023-07-13T06:52:37;6.05;;;2.17;;
61785;SDS011;47692;53.714;11.372;2023-07-13T06:55:02;2.35;;;1.60;;
61785;SDS011;47692;53.714;11.372;2023-07-13T06:57:28;4.00;;;1.60;;
61785;SDS011;47692;53.714;11.372;2023-07-13T06:59:53;5.40;;;1.75;;
61785;SDS011;47692;53.714;11.372;2023-07-13T07:02:18;5.25;;;2.05;;
61785;SDS011;47692;53.714;11.372;2023-07-13T07:04:44;3.50;;;1.63;;
61785;SDS011;47692;53.714;11.372;2023-07-13T07:07:09;5.10;;;2.10;;
61785;SDS011;47692;53.714;11.372;2023-07-13T07:09:34;5.40;;;1.95;;
61785;SDS011;47692;53.714;11.372;2023-07-13T07:11:59;5.75;;;1.73;;
61785;SDS011;47692;53.714;11.372;2023-07-13T07:14:25;4.53;;;1.90;;
61785;SDS011;47692;53.714;11.372;2023-07-13T07:16:50;8.02;;;1.90;;
61785;SDS011;47692;53.714;11.372;2023-07-13T07:19:16;4.75;;;1.95;;
61785;SDS011;47692;53.714;11.372;2023-07-13T07:21:41;8.63;;;1.95;;
61785;SDS011;47692;53.714;11.372;2023-07-13T07:24:06;8.18;;;1.75;;
61785;SDS011;47692;53.714;11.372;2023-07-13T07:26:32;5.70;;;1.70;;
61785;SDS011;47692;53.714;11.372;2023-07-13T07:28:58;6.78;;;1.65;;
61785;SDS011;47692;53.714;11.372;2023-07-13T07:31:23;5.97;;;1.92;;
61785;SDS011;47692;53.714;11.372;2023-07-13T07:33:48;5.32;;;1.75;;
61785;SDS011;47692;53.714;11.372;2023-07-13T07:36:14;7.78;;;1.60;;
61785;SDS011;47692;53.714;11.372;2023-07-13T07:38:41;6.93;;;1.88;;
61785;SDS011;47692;53.714;11.372;2023-07-13T07:41:06;3.95;;;1.70;;
61785;SDS011;47692;53.714;11.372;2023-07-13T07:43:32;9.10;;;2.35;;
61785;SDS011;47692;53.714;11.372;2023-07-13T07:45:57;6.57;;;1.95;;
61785;SDS011;47692;53.714;11.372;2023-07-13T07:48:23;6.45;;;2.75;;
61785;SDS011;47692;53.714;11.372;2023-07-13T07:50:48;5.53;;;1.75;;
61785;SDS011;47692;53.714;11.372;2023-07-13T07:53:13;4.47;;;1.83;;
61785;SDS011;47692;53.714;11.372;2023-07-13T07:55:39;4.93;;;1.80;;
61785;SDS011;47692;53.714;11.372;2023-07-13T07:58:04;5.55;;;1.80;;
61785;SDS011;47692;53.714;11.372;2023-07-13T08:00:30;6.63;;;2.28;;
61785;SDS011;47692;53.714;11.372;2023-07-13T08:02:57;8.52;;;1.98;;
61785;SDS011;47692;53.714;11.372;2023-07-13T08:05:22;6.53;;;1.52;;
61785;SDS011;47692;53.714;11.372;2023-07-13T08:07:48;7.53;;;1.70;;
61785;SDS011;47692;53.714;11.372;2023-07-13T08:10:13;7.05;;;1.80;;
61785;SDS011;47692;53.714;11.372;2023-07-13T08:12:39;8.30;;;1.83;;
61785;SDS011;47692;53.714;11.372;2023-07-13T08:15:06;9.48;;;2.00;;
61785;SDS011;47692;53.714;11.372;2023-07-13T08:17:34;5.00;;;1.50;;
61785;SDS011;47692;53.714;11.372;2023-07-13T08:19:59;10.70;;;1.77;;
61785;SDS011;47692;53.714;11.372;2023-07-13T08:22:25;10.32;;;1.70;;
61785;SDS011;47692;53.714;11.372;2023-07-13T08:24:50;5.45;;;1.67;;
61785;SDS011;47692;53.714;11.372;2023-07-13T08:27:21;7.25;;;1.80;;
61785;SDS011;47692;53.714;11.372;2023-07-13T08:29:47;9.32;;;1.75;;
61785;SDS011;47692;53.714;11.372;2023-07-13T08:32:13;6.15;;;1.70;;
61785;SDS011;47692;53.714;11.372;2023-07-13T08:34:39;8.52;;;2.08;;
61785;SDS011;47692;53.714;11.372;2023-07-13T08:37:04;5.70;;;1.52;;
61785;SDS011;47692;53.714;11.372;2023-07-13T08:39:30;5.70;;;1.67;;
61785;SDS011;47692;53.714;11.372;2023-07-13T08:41:58;7.07;;;1.50;;
61785;SDS011;47692;53.714;11.372;2023-07-13T08:44:36;7.53;;;1.40;;
61785;SDS011;47692;53.714;11.372;2023-07-13T08:47:09;6.03;;;1.55;;
61785;SDS011;47692;53.714;11.372;2023-07-13T08:49:38;5.28;;;1.52;;
61785;SDS011;47692;53.714;11.372;2023-07-13T08:52:05;6.03;;;1.58;;
61785;SDS011;47692;53.714;11.372;2023-07-13T08:54:41;6.90;;;1.80;;
61785;SDS011;47692;53.714;11.372;2023-07-13T08:57:14;11.07;;;1.77;;
61785;SDS011;47692;53.714;11.372;2023-07-13T08:59:41;7.15;;;2.00;;
61785;SDS011;47692;53.714;11.372;2023-07-13T09:02:14;10.05;;;1.92;;
61785;SDS011;47692;53.714;11.372;2023-07-13T09:05:30;6.63;;;1.77;;
61785;SDS011;47692;53.714;11.372;2023-07-13T09:10:17;5.68;;;1.75;;
61785;SDS011;47692;53.714;11.372;2023-07-13T09:15:53;6.55;;;1.73;;
61785;SDS011;47692;53.714;11.372;2023-07-13T09:18:23;7.57;;;1.63;;
61785;SDS011;47692;53.714;11.372;2023-07-13T09:20:51;7.53;;;1.90;;
61785;SDS011;47692;53.714;11.372;2023-07-13T09:23:22;6.85;;;1.83;;
61785;SDS011;47692;53.714;11.372;2023-07-13T09:25:53;5.40;;;1.10;;
61785;SDS011;47692;53.714;11.372;2023-07-13T09:28:27;5.95;;;1.20;;
61785;SDS011;47692;53.714;11.372;2023-07-13T09:31:06;5.38;;;1.20;;
61785;SDS011;47692;53.714;11.372;2023-07-13T09:33:37;6.35;;;1.23;;
61785;SDS011;47692;53.714;11.372;2023-07-13T09:36:05;6.47;;;1.40;;
61785;SDS011;47692;53.714;11.372;2023-07-13T09:38:42;5.05;;;0.98;;
61785;SDS011;47692;53.714;11.372;2023-07-13T09:41:31;7.72;;;1.50;;
61785;SDS011;47692;53.714;11.372;2023-07-13T09:44:13;5.50;;;1.40;;
61785;SDS011;47692;53.714;11.372;2023-07-13T09:46:43;3.22;;;1.27;;
61785;SDS011;47692;53.714;11.372;2023-07-13T09:49:11;6.53;;;1.38;;
61785;SDS011;47692;53.714;11.372;2023-07-13T09:51:43;7.60;;;1.48;;
61785;SDS011;47692;53.714;11.372;2023-07-13T09:54:27;4.40;;;1.23;;
61785;SDS011;47692;53.714;11.372;2023-07-13T09:56:59;3.75;;;1.23;;
61785;SDS011;47692;53.714;11.372;2023-07-13T09:59:30;5.50;;;1.40;;
61785;SDS011;47692;53.714;11.372;2023-07-13T10:01:57;2.67;;;1.30;;
61785;SDS011;47692;53.714;11.372;2023-07-13T10:04:33;3.88;;;1.02;;
61785;SDS011;47692;53.714;11.372;2023-07-13T10:07:06;4.22;;;1.33;;
61785;SDS011;47692;53.714;11.372;2023-07-13T10:09:38;3.17;;;0.90;;
61785;SDS011;47692;53.714;11.372;2023-07-13T10:12:12;5.22;;;1.20;;
61785;SDS011;47692;53.714;11.372;2023-07-13T10:14:39;3.47;;;0.90;;
61785;SDS011;47692;53.714;11.372;2023-07-13T10:17:08;7.97;;;1.30;;
61785;SDS011;47692;53.714;11.372;2023-07-13T10:19:37;6.82;;;1.35;;
61785;SDS011;47692;53.714;11.372;2023-07-13T10:22:14;5.90;;;1.30;;
61785;SDS011;47692;53.714;11.372;2023-07-13T10:24:48;3.10;;;1.33;;
61785;SDS011;47692;53.714;11.372;2023-07-13T10:27:17;2.88;;;1.05;;
61785;SDS011;47692;53.714;11.372;2023-07-13T10:29:44;3.78;;;1.30;;
61785;SDS011;47692;53.714;11.372;2023-07-13T10:32:13;4.80;;;1.27;;
61785;SDS011;47692;53.714;11.372;2023-07-13T10:34:42;4.78;;;1.23;;
61785;SDS011;47692;53.714;11.372;2023-07-13T10:37:16;3.33;;;1.23;;
61785;SDS011;47692;53.714;11.372;2023-07-13T10:39:45;7.63;;;1.30;;
61785;SDS011;47692;53.714;11.372;2023-07-13T10:42:13;4.68;;;1.50;;
61785;SDS011;47692;53.714;11.372;2023-07-13T10:44:47;5.00;;;1.40;;
61785;SDS011;47692;53.714;11.372;2023-07-13T10:47:13;4.72;;;1.45;;
61785;SDS011;47692;53.714;11.372;2023-07-13T10:49:42;5.95;;;1.50;;
61785;SDS011;47692;53.714;11.372;2023-07-13T10:58:14;4.22;;;1.20;;
61785;SDS011;47692;53.714;11.372;2023-07-13T11:01:26;4.28;;;1.30;;
61785;SDS011;47692;53.714;11.372;2023-07-13T11:03:37;3.55;;;1.30;;
61785;SDS011;47692;53.714;11.372;2023-07-13T11:06:15;6.80;;;1.45;;
61785;SDS011;47692;53.714;11.372;2023-07-13T11:09:30;5.68;;;1.25;;
61785;SDS011;47692;53.714;11.372;2023-07-13T11:12:10;3.10;;;0.88;;
61785;SDS011;47692;53.714;11.372;2023-07-13T11:19:52;3.90;;;1.05;;
61785;SDS011;47692;53.714;11.372;2023-07-13T11:22:21;3.00;;;1.10;;
61785;SDS011;47692;53.714;11.372;2023-07-13T11:24:49;5.20;;;1.40;;
61785;SDS011;47692;53.714;11.372;2023-07-13T11:27:26;3.08;;;1.30;;
61785;SDS011;47692;53.714;11.372;2023-07-13T11:29:52;2.53;;;0.93;;
61785;SDS011;47692;53.714;11.372;2023-07-13T11:32:33;4.68;;;1.40;;
61785;SDS011;47692;53.714;11.372;2023-07-13T11:34:59;4.50;;;1.17;;
61785;SDS011;47692;53.714;11.372;2023-07-13T11:37:25;6.50;;;1.15;;
61785;SDS011;47692;53.714;11.372;2023-07-13T11:39:51;2.55;;;1.27;;
61785;SDS011;47692;53.714;11.372;2023-07-13T11:42:17;2.90;;;1.27;;
61785;SDS011;47692;53.714;11.372;2023-07-13T11:44:47;5.28;;;1.33;;
61785;SDS011;47692;53.714;11.372;2023-07-13T11:47:17;4.88;;;1.33;;
61785;SDS011;47692;53.714;11.372;2023-07-13T11:49:53;2.65;;;1.20;;
61785;SDS011;47692;53.714;11.372;2023-07-13T11:52:27;2.85;;;1.30;;
61785;SDS011;47692;53.714;11.372;2023-07-13T11:55:02;2.78;;;1.35;;
61785;SDS011;47692;53.714;11.372;2023-07-13T11:57:39;4.57;;;1.48;;
61785;SDS011;47692;53.714;11.372;2023-07-13T12:02:43;3.70;;;1.27;;
61785;SDS011;47692;53.714;11.372;2023-07-13T12:05:12;2.72;;;1.52;;
61785;SDS011;47692;53.714;11.372;2023-07-13T12:07:40;4.15;;;1.50;;
61785;SDS011;47692;53.714;11.372;2023-07-13T12:12:33;3.60;;;1.70;;
61785;SDS011;47692;53.714;11.372;2023-07-13T12:14:58;3.75;;;1.40;;
61785;SDS011;47692;53.714;11.372;2023-07-13T12:17:24;4.90;;;1.65;;
61785;SDS011;47692;53.714;11.372;2023-07-13T12:19:50;5.22;;;1.70;;
61785;SDS011;47692;53.714;11.372;2023-07-13T12:22:17;5.30;;;1.58;;
61785;SDS011;47692;53.714;11.372;2023-07-13T12:24:44;3.97;;;1.48;;
61785;SDS011;47692;53.714;11.372;2023-07-13T12:27:19;4.60;;;1.65;;
61785;SDS011;47692;53.714;11.372;2023-07-13T12:32:55;4.60;;;1.58;;
61785;SDS011;47692;53.714;11.372;2023-07-13T12:35:45;5.93;;;1.48;;
61785;SDS011;47692;53.714;11.372;2023-07-13T12:38:13;3.60;;;1.40;;
61785;SDS011;47692;53.714;11.372;2023-07-13T12:40:39;8.68;;;1.65;;
61785;SDS011;47692;53.714;11.372;2023-07-13T12:43:09;1.85;;;1.23;;
61785;SDS011;47692;53.714;11.372;2023-07-13T12:45:37;4.68;;;1.55;;
61785;SDS011;47692;53.714;11.372;2023-07-13T12:48:06;2.75;;;1.40;;
61785;SDS011;47692;53.714;11.372;2023-07-13T12:50:40;3.40;;;1.60;;
61785;SDS011;47692;53.714;11.372;2023-07-13T12:55:46;5.90;;;1.52;;
61785;SDS011;47692;53.714;11.372;2023-07-13T12:58:18;3.33;;;1.50;;
61785;SDS011;47692;53.714;11.372;2023-07-13T13:00:50;2.80;;;1.20;;
61785;SDS011;47692;53.714;11.372;2023-07-13T13:03:24;4.53;;;1.55;;
61785;SDS011;47692;53.714;11.372;2023-07-13T13:05:56;5.97;;;1.65;;
61785;SDS011;47692;53.714;11.372;2023-07-13T13:08:24;3.35;;;1.30;;
61785;SDS011;47692;53.714;11.372;2023-07-13T13:10:50;4.07;;;1.25;;
61785;SDS011;47692;53.714;11.372;2023-07-13T13:13:15;4.03;;;1.17;;
61785;SDS011;47692;53.714;11.372;2023-07-13T13:15:40;4.68;;;1.75;;
61785;SDS011;47692;53.714;11.372;2023-07-13T13:18:14;3.55;;;1.35;;
61785;SDS011;47692;53.714;11.372;2023-07-13T13:20:41;5.80;;;1.50;;
61785;SDS011;47692;53.714;11.372;2023-07-13T13:23:09;3.53;;;1.42;;
61785;SDS011;47692;53.714;11.372;2023-07-13T13:25:38;6.80;;;1.70;;
61785;SDS011;47692;53.714;11.372;2023-07-13T13:28:03;3.67;;;1.40;;
61785;SDS011;47692;53.714;11.372;2023-07-13T13:30:30;3.28;;;1.38;;
61785;SDS011;47692;53.714;11.372;2023-07-13T13:32:56;3.45;;;1.17;;
61785;SDS011;47692;53.714;11.372;2023-07-13T13:35:21;3.17;;;1.40;;
61785;SDS011;47692;53.714;11.372;2023-07-13T13:37:47;2.92;;;1.20;;
61785;SDS011;47692;53.714;11.372;2023-07-13T13:40:13;4.10;;;1.30;;
61785;SDS011;47692;53.714;11.372;2023-07-13T13:42:39;3.65;;;1.30;;
61785;SDS011;47692;53.714;11.372;2023-07-13T13:45:04;3.33;;;1.80;;
61785;SDS011;47692;53.714;11.372;2023-07-13T13:47:31;8.40;;;1.95;;
61785;SDS011;47692;53.714;11.372;2023-07-13T13:49:58;7.68;;;1.90;;
61785;SDS011;47692;53.714;11.372;2023-07-13T13:52:23;4.35;;;1.60;;
61785;SDS011;47692;53.714;11.372;2023-07-13T13:54:50;5.35;;;1.80;;
61785;SDS011;47692;53.714;11.372;2023-07-13T13:57:20;5.82;;;1.63;;
61785;SDS011;47692;53.714;11.372;2023-07-13T13:59:48;3.70;;;1.20;;
61785;SDS011;47692;53.714;11.372;2023-07-13T14:02:21;3.05;;;1.00;;
61785;SDS011;47692;53.714;11.372;2023-07-13T14:04:58;3.25;;;1.10;;
61785;SDS011;47692;53.714;11.372;2023-07-13T14:07:25;5.88;;;1.30;;
61785;SDS011;47692;53.714;11.372;2023-07-13T14:09:52;5.65;;;1.77;;
61785;SDS011;47692;53.714;11.372;2023-07-13T14:12:18;4.72;;;1.50;;
61785;SDS011;47692;53.714;11.372;2023-07-13T14:14:44;6.95;;;1.70;;
61785;SDS011;47692;53.714;11.372;2023-07-13T14:17:21;7.25;;;1.98;;
61785;SDS011;47692;53.714;11.372;2023-07-13T14:32:15;1.90;;;1.10;;
61785;SDS011;47692;53.714;11.372;2023-07-13T14:34:41;2.15;;;0.90;;
61785;SDS011;47692;53.714;11.372;2023-07-13T14:37:11;3.40;;;1.10;;
61785;SDS011;47692;53.714;11.372;2023-07-13T14:39:39;2.63;;;0.98;;
61785;SDS011;47692;53.714;11.372;2023-07-13T14:42:08;6.22;;;1.63;;
61785;SDS011;47692;53.714;11.372;2023-07-13T14:44:34;2.40;;;1.15;;
61785;SDS011;47692;53.714;11.372;2023-07-13T14:47:00;2.13;;;0.90;;
61785;SDS011;47692;53.714;11.372;2023-07-13T14:49:32;2.45;;;1.20;;
61785;SDS011;47692;53.714;11.372;2023-07-13T14:52:14;4.45;;;1.33;;
61785;SDS011;47692;53.714;11.372;2023-07-13T14:54:42;3.63;;;1.27;;
61785;SDS011;47692;53.714;11.372;2023-07-13T14:57:18;6.13;;;1.30;;
61785;SDS011;47692;53.714;11.372;2023-07-13T14:59:45;3.05;;;1.13;;
61785;SDS011;47692;53.714;11.372;2023-07-13T15:02:23;3.05;;;1.05;;
61785;SDS011;47692;53.714;11.372;2023-07-13T15:04:52;3.85;;;1.10;;
61785;SDS011;47692;53.714;11.372;2023-07-13T15:07:19;2.65;;;0.90;;
61785;SDS011;47692;53.714;11.372;2023-07-13T15:09:46;3.72;;;1.08;;
61785;SDS011;47692;53.714;11.372;2023-07-13T15:12:15;1.35;;;0.85;;
61785;SDS011;47692;53.714;11.372;2023-07-13T15:14:41;3.00;;;0.90;;
61785;SDS011;47692;53.714;11.372;2023-07-13T15:17:17;2.65;;;0.90;;
61785;SDS011;47692;53.714;11.372;2023-07-13T15:19:46;1.30;;;1.00;;
61785;SDS011;47692;53.714;11.372;2023-07-13T15:22:11;4.30;;;1.23;;